sensor_id;sensor_type;location;lat;lon;timestamp;P1;durP1;ratioP1;P2;durP2;ratioP2
16025;SDS011;8117;52.488;13.460;2023-02-28T00:00:19;1.30;;;0.77;;
16025;SDS011;8117;52.488;13.460;2023-02-28T00:02:50;1.80;;;1.27;;
16025;SDS011;8117;52.488;13.460;2023-02-28T00:05:17;0.50;;;0.40;;
16025;SDS011;8117;52.488;13.460;2023-02-28T00:07:48;3.57;;;0.70;;
16025;SDS011;8117;52.488;13.460;2023-02-28T00:10:19;0.60;;;0.60;;
16025;SDS011;8117;52.488;13.460;2023-02-28T00:12:48;2.07;;;0.97;;
16025;SDS011;8117;52.488;13.460;2023-02-28T00:18:01;1.40;;;0.83;;
16025;SDS011;8117;52.488;13.460;2023-02-28T00:20:28;1.27;;;0.67;;
16025;SDS011;8117;52.488;13.460;2023-02-28T00:22:55;0.83;;;0.70;;
16025;SDS011;8117;52.488;13.460;2023-02-28T00:25:24;0.67;;;0.67;;
16025;SDS011;8117;52.488;13.460;2023-02-28T00:27:56;1.30;;;0.50;;
16025;SDS011;8117;52.488;13.460;2023-02-28T00:30:22;0.30;;;0.30;;
16025;SDS011;8117;52.488;13.460;2023-02-28T00:32:51;2.40;;;1.30;;
16025;SDS011;8117;52.488;13.460;2023-02-28T00:35:19;2.17;;;0.77;;
16025;SDS011;8117;52.488;13.460;2023-02-28T00:37:47;1.50;;;0.53;;
16025;SDS011;8117;52.488;13.460;2023-02-28T00:40:17;1.37;;;0.80;;
16025;SDS011;8117;52.488;13.460;2023-02-28T00:42:44;0.83;;;0.63;;
16025;SDS011;8117;52.488;13.460;2023-02-28T00:45:11;0.43;;;0.43;;
16025;SDS011;8117;52.488;13.460;2023-02-28T00:47:37;0.70;;;0.40;;
16025;SDS011;8117;52.488;13.460;2023-02-28T00:50:06;0.40;;;0.40;;
16025;SDS011;8117;52.488;13.460;2023-02-28T00:52:34;0.80;;;0.77;;
16025;SDS011;8117;52.488;13.460;2023-02-28T00:55:01;7.00;;;1.23;;
16025;SDS011;8117;52.488;13.460;2023-02-28T00:57:28;0.53;;;0.40;;
16025;SDS011;8117;52.488;13.460;2023-02-28T00:59:54;0.80;;;0.80;;
16025;SDS011;8117;52.488;13.460;2023-02-28T01:02:21;0.37;;;0.37;;
16025;SDS011;8117;52.488;13.460;2023-02-28T01:04:51;1.83;;;1.00;;
16025;SDS011;8117;52.488;13.460;2023-02-28T01:07:20;1.40;;;1.30;;
16025;SDS011;8117;52.488;13.460;2023-02-28T01:09:47;2.00;;;0.90;;
16025;SDS011;8117;52.488;13.460;2023-02-28T01:12:18;1.13;;;0.73;;
16025;SDS011;8117;52.488;13.460;2023-02-28T01:14:45;0.53;;;0.53;;
16025;SDS011;8117;52.488;13.460;2023-02-28T01:17:12;0.60;;;0.60;;
16025;SDS011;8117;52.488;13.460;2023-02-28T01:19:41;1.13;;;1.03;;
16025;SDS011;8117;52.488;13.460;2023-02-28T01:22:10;1.07;;;1.03;;
16025;SDS011;8117;52.488;13.460;2023-02-28T01:39:39;1.47;;;1.37;;
16025;SDS011;8117;52.488;13.460;2023-02-28T01:42:32;0.63;;;0.63;;
16025;SDS011;8117;52.488;13.460;2023-02-28T02:35:36;0.50;;;0.50;;
16025;SDS011;8117;52.488;13.460;2023-02-28T02:47:08;1.03;;;0.47;;
16025;SDS011;8117;52.488;13.460;2023-02-28T04:10:41;0.73;;;0.57;;
16025;SDS011;8117;52.488;13.460;2023-02-28T04:13:48;1.23;;;0.90;;
16025;SDS011;8117;52.488;13.460;2023-02-28T05:55:14;1.23;;;1.00;;
16025;SDS011;8117;52.488;13.460;2023-02-28T05:58:14;0.90;;;0.87;;
16025;SDS011;8117;52.488;13.460;2023-02-28T06:11:00;1.27;;;1.20;;
16025;SDS011;8117;52.488;13.460;2023-02-28T06:14:02;1.70;;;1.60;;
16025;SDS011;8117;52.488;13.460;2023-02-28T06:17:05;1.50;;;1.03;;
16025;SDS011;8117;52.488;13.460;2023-02-28T06:20:03;1.03;;;0.80;;
16025;SDS011;8117;52.488;13.460;2023-02-28T06:22:34;1.27;;;1.07;;
16025;SDS011;8117;52.488;13.460;2023-02-28T06:25:15;1.10;;;1.03;;
16025;SDS011;8117;52.488;13.460;2023-02-28T06:43:04;2.67;;;1.40;;
16025;SDS011;8117;52.488;13.460;2023-02-28T06:46:21;3.20;;;1.53;;
16025;SDS011;8117;52.488;13.460;2023-02-28T06:48:38;1.17;;;0.80;;
16025;SDS011;8117;52.488;13.460;2023-02-28T06:51:15;1.23;;;0.70;;
16025;SDS011;8117;52.488;13.460;2023-02-28T06:53:55;1.67;;;0.97;;
16025;SDS011;8117;52.488;13.460;2023-02-28T06:56:22;4.00;;;1.70;;
16025;SDS011;8117;52.488;13.460;2023-02-28T06:58:52;7.67;;;1.33;;
16025;SDS011;8117;52.488;13.460;2023-02-28T07:01:18;2.40;;;2.20;;
16025;SDS011;8117;52.488;13.460;2023-02-28T07:03:51;0.93;;;0.93;;
16025;SDS011;8117;52.488;13.460;2023-02-28T07:09:26;1.83;;;1.37;;
16025;SDS011;8117;52.488;13.460;2023-02-28T07:11:55;2.40;;;1.73;;
16025;SDS011;8117;52.488;13.460;2023-02-28T07:14:22;2.60;;;1.80;;
16025;SDS011;8117;52.488;13.460;2023-02-28T07:40:47;1.13;;;1.07;;
16025;SDS011;8117;52.488;13.460;2023-02-28T07:43:15;0.90;;;0.90;;
16025;SDS011;8117;52.488;13.460;2023-02-28T07:45:42;4.37;;;1.33;;
16025;SDS011;8117;52.488;13.460;2023-02-28T07:48:09;3.13;;;2.10;;
16025;SDS011;8117;52.488;13.460;2023-02-28T07:50:36;1.03;;;1.03;;
16025;SDS011;8117;52.488;13.460;2023-02-28T07:53:05;5.17;;;2.40;;
16025;SDS011;8117;52.488;13.460;2023-02-28T07:55:36;1.30;;;0.90;;
16025;SDS011;8117;52.488;13.460;2023-02-28T07:58:08;1.43;;;1.30;;
16025;SDS011;8117;52.488;13.460;2023-02-28T08:00:40;3.90;;;2.00;;
16025;SDS011;8117;52.488;13.460;2023-02-28T08:03:10;1.53;;;0.87;;
16025;SDS011;8117;52.488;13.460;2023-02-28T08:05:43;1.67;;;1.57;;
16025;SDS011;8117;52.488;13.460;2023-02-28T08:08:49;1.27;;;0.97;;
16025;SDS011;8117;52.488;13.460;2023-02-28T08:11:13;3.10;;;2.33;;
16025;SDS011;8117;52.488;13.460;2023-02-28T08:14:12;1.47;;;1.37;;
16025;SDS011;8117;52.488;13.460;2023-02-28T08:16:43;1.30;;;0.90;;
16025;SDS011;8117;52.488;13.460;2023-02-28T08:19:15;1.37;;;1.23;;
16025;SDS011;8117;52.488;13.460;2023-02-28T08:21:42;2.73;;;0.80;;
16025;SDS011;8117;52.488;13.460;2023-02-28T08:24:09;3.43;;;1.53;;
16025;SDS011;8117;52.488;13.460;2023-02-28T08:26:40;1.73;;;0.97;;
16025;SDS011;8117;52.488;13.460;2023-02-28T08:29:08;1.90;;;1.17;;
16025;SDS011;8117;52.488;13.460;2023-02-28T08:31:35;0.67;;;0.67;;
16025;SDS011;8117;52.488;13.460;2023-02-28T08:34:05;2.10;;;1.07;;
16025;SDS011;8117;52.488;13.460;2023-02-28T08:36:36;0.30;;;0.30;;
16025;SDS011;8117;52.488;13.460;2023-02-28T08:39:11;1.17;;;1.00;;
16025;SDS011;8117;52.488;13.460;2023-02-28T08:41:38;1.50;;;1.23;;
16025;SDS011;8117;52.488;13.460;2023-02-28T08:44:07;4.67;;;1.67;;
16025;SDS011;8117;52.488;13.460;2023-02-28T08:46:37;0.73;;;0.67;;
16025;SDS011;8117;52.488;13.460;2023-02-28T08:49:04;1.57;;;1.27;;
16025;SDS011;8117;52.488;13.460;2023-02-28T08:51:34;0.80;;;0.70;;
16025;SDS011;8117;52.488;13.460;2023-02-28T08:54:03;1.87;;;0.63;;
16025;SDS011;8117;52.488;13.460;2023-02-28T08:56:44;0.37;;;0.37;;
16025;SDS011;8117;52.488;13.460;2023-02-28T08:59:16;1.30;;;0.93;;
16025;SDS011;8117;52.488;13.460;2023-02-28T09:03:03;0.47;;;0.47;;
16025;SDS011;8117;52.488;13.460;2023-02-28T09:07:19;1.10;;;0.60;;
16025;SDS011;8117;52.488;13.460;2023-02-28T09:08:21;1.70;;;1.07;;
16025;SDS011;8117;52.488;13.460;2023-02-28T09:11:23;1.30;;;1.20;;
16025;SDS011;8117;52.488;13.460;2023-02-28T09:14:37;1.07;;;0.90;;
16025;SDS011;8117;52.488;13.460;2023-02-28T09:17:38;0.73;;;0.67;;
16025;SDS011;8117;52.488;13.460;2023-02-28T09:21:42;0.73;;;0.60;;
16025;SDS011;8117;52.488;13.460;2023-02-28T09:23:55;0.23;;;0.23;;
16025;SDS011;8117;52.488;13.460;2023-02-28T09:26:47;0.53;;;0.53;;
16025;SDS011;8117;52.488;13.460;2023-02-28T09:29:26;0.13;;;0.13;;
16025;SDS011;8117;52.488;13.460;2023-02-28T09:32:21;0.40;;;0.40;;
16025;SDS011;8117;52.488;13.460;2023-02-28T09:35:27;0.33;;;0.33;;
16025;SDS011;8117;52.488;13.460;2023-02-28T09:38:25;3.90;;;0.60;;
16025;SDS011;8117;52.488;13.460;2023-02-28T09:41:14;0.20;;;0.20;;
16025;SDS011;8117;52.488;13.460;2023-02-28T09:44:03;0.33;;;0.33;;
16025;SDS011;8117;52.488;13.460;2023-02-28T09:46:44;0.20;;;0.20;;
16025;SDS011;8117;52.488;13.460;2023-02-28T09:49:22;0.50;;;0.50;;
16025;SDS011;8117;52.488;13.460;2023-02-28T09:55:00;0.60;;;0.40;;
16025;SDS011;8117;52.488;13.460;2023-02-28T10:00:33;0.30;;;0.30;;
16025;SDS011;8117;52.488;13.460;2023-02-28T10:03:44;0.30;;;0.30;;
16025;SDS011;8117;52.488;13.460;2023-02-28T10:09:44;1.13;;;1.13;;
16025;SDS011;8117;52.488;13.460;2023-02-28T10:12:26;0.23;;;0.20;;
16025;SDS011;8117;52.488;13.460;2023-02-28T10:14:54;0.10;;;0.10;;
16025;SDS011;8117;52.488;13.460;2023-02-28T10:17:21;0.40;;;0.40;;
16025;SDS011;8117;52.488;13.460;2023-02-28T10:19:53;0.20;;;0.20;;
16025;SDS011;8117;52.488;13.460;2023-02-28T10:22:24;0.93;;;0.40;;
16025;SDS011;8117;52.488;13.460;2023-02-28T10:24:58;0.57;;;0.33;;
16025;SDS011;8117;52.488;13.460;2023-02-28T10:27:29;0.87;;;0.47;;
16025;SDS011;8117;52.488;13.460;2023-02-28T10:29:57;0.10;;;0.10;;
16025;SDS011;8117;52.488;13.460;2023-02-28T10:32:26;0.20;;;0.20;;
16025;SDS011;8117;52.488;13.460;2023-02-28T10:34:55;0.30;;;0.30;;
16025;SDS011;8117;52.488;13.460;2023-02-28T10:40:29;0.27;;;0.27;;
16025;SDS011;8117;52.488;13.460;2023-02-28T10:42:58;0.30;;;0.30;;
16025;SDS011;8117;52.488;13.460;2023-02-28T10:45:28;0.80;;;0.50;;
16025;SDS011;8117;52.488;13.460;2023-02-28T10:48:01;2.20;;;0.77;;
16025;SDS011;8117;52.488;13.460;2023-02-28T10:50:53;1.80;;;0.60;;
16025;SDS011;8117;52.488;13.460;2023-02-28T10:53:31;0.83;;;0.63;;
16025;SDS011;8117;52.488;13.460;2023-02-28T10:56:01;0.73;;;0.40;;
16025;SDS011;8117;52.488;13.460;2023-02-28T10:58:30;0.30;;;0.30;;
16025;SDS011;8117;52.488;13.460;2023-02-28T11:00:58;0.40;;;0.40;;
16025;SDS011;8117;52.488;13.460;2023-02-28T11:03:30;0.73;;;0.53;;
16025;SDS011;8117;52.488;13.460;2023-02-28T11:06:03;0.50;;;0.50;;
16025;SDS011;8117;52.488;13.460;2023-02-28T11:08:31;1.17;;;0.43;;
16025;SDS011;8117;52.488;13.460;2023-02-28T11:10:58;2.07;;;1.00;;
16025;SDS011;8117;52.488;13.460;2023-02-28T11:13:31;0.30;;;0.30;;
16025;SDS011;8117;52.488;13.460;2023-02-28T11:16:02;1.47;;;1.23;;
16025;SDS011;8117;52.488;13.460;2023-02-28T11:18:33;2.50;;;0.80;;
16025;SDS011;8117;52.488;13.460;2023-02-28T11:21:05;0.50;;;0.50;;
16025;SDS011;8117;52.488;13.460;2023-02-28T11:23:33;3.93;;;0.97;;
16025;SDS011;8117;52.488;13.460;2023-02-28T11:26:04;0.63;;;0.40;;
16025;SDS011;8117;52.488;13.460;2023-02-28T11:29:08;2.63;;;1.00;;
16025;SDS011;8117;52.488;13.460;2023-02-28T11:35:40;0.43;;;0.43;;
16025;SDS011;8117;52.488;13.460;2023-02-28T11:38:52;2.67;;;0.93;;
16025;SDS011;8117;52.488;13.460;2023-02-28T11:45:26;1.00;;;0.70;;
16025;SDS011;8117;52.488;13.460;2023-02-28T11:48:11;0.87;;;0.70;;
16025;SDS011;8117;52.488;13.460;2023-02-28T12:16:04;0.73;;;0.47;;
16025;SDS011;8117;52.488;13.460;2023-02-28T12:19:22;1.63;;;0.73;;
16025;SDS011;8117;52.488;13.460;2023-02-28T12:22:19;1.30;;;0.63;;
16025;SDS011;8117;52.488;13.460;2023-02-28T12:25:38;1.23;;;0.70;;
16025;SDS011;8117;52.488;13.460;2023-02-28T12:28:20;0.40;;;0.40;;
16025;SDS011;8117;52.488;13.460;2023-02-28T12:30:58;2.33;;;0.50;;
16025;SDS011;8117;52.488;13.460;2023-02-28T12:33:47;0.60;;;0.60;;
16025;SDS011;8117;52.488;13.460;2023-02-28T12:36:43;1.20;;;0.60;;
16025;SDS011;8117;52.488;13.460;2023-02-28T12:39:54;0.80;;;0.57;;
16025;SDS011;8117;52.488;13.460;2023-02-28T12:42:32;0.57;;;0.57;;
16025;SDS011;8117;52.488;13.460;2023-02-28T12:45:27;0.53;;;0.53;;
16025;SDS011;8117;52.488;13.460;2023-02-28T12:48:10;0.50;;;0.50;;
16025;SDS011;8117;52.488;13.460;2023-02-28T12:51:01;0.77;;;0.30;;
16025;SDS011;8117;52.488;13.460;2023-02-28T12:53:35;0.60;;;0.50;;
16025;SDS011;8117;52.488;13.460;2023-02-28T12:56:22;0.30;;;0.30;;
16025;SDS011;8117;52.488;13.460;2023-02-28T12:58:57;0.70;;;0.40;;
16025;SDS011;8117;52.488;13.460;2023-02-28T13:01:46;1.13;;;0.80;;
16025;SDS011;8117;52.488;13.460;2023-02-28T13:07:45;0.40;;;0.30;;
16025;SDS011;8117;52.488;13.460;2023-02-28T13:10:45;0.23;;;0.23;;
16025;SDS011;8117;52.488;13.460;2023-02-28T13:13:29;0.10;;;0.10;;
16025;SDS011;8117;52.488;13.460;2023-02-28T13:18:48;0.70;;;0.60;;
16025;SDS011;8117;52.488;13.460;2023-02-28T13:21:30;0.53;;;0.43;;
16025;SDS011;8117;52.488;13.460;2023-02-28T13:24:43;0.70;;;0.70;;
16025;SDS011;8117;52.488;13.460;2023-02-28T13:27:35;0.73;;;0.50;;
16025;SDS011;8117;52.488;13.460;2023-02-28T13:34:17;0.50;;;0.50;;
16025;SDS011;8117;52.488;13.460;2023-02-28T13:46:30;1.20;;;0.97;;
16025;SDS011;8117;52.488;13.460;2023-02-28T13:49:19;1.27;;;0.50;;
16025;SDS011;8117;52.488;13.460;2023-02-28T13:51:49;1.87;;;0.80;;
16025;SDS011;8117;52.488;13.460;2023-02-28T13:54:24;2.67;;;0.73;;
16025;SDS011;8117;52.488;13.460;2023-02-28T13:57:03;1.13;;;1.00;;
16025;SDS011;8117;52.488;13.460;2023-02-28T13:59:46;1.47;;;0.90;;
16025;SDS011;8117;52.488;13.460;2023-02-28T14:02:40;1.70;;;0.70;;
16025;SDS011;8117;52.488;13.460;2023-02-28T14:05:16;0.50;;;0.40;;
16025;SDS011;8117;52.488;13.460;2023-02-28T14:07:55;0.50;;;0.50;;
16025;SDS011;8117;52.488;13.460;2023-02-28T14:10:28;2.30;;;1.17;;
16025;SDS011;8117;52.488;13.460;2023-02-28T14:16:02;0.30;;;0.30;;
16025;SDS011;8117;52.488;13.460;2023-02-28T14:18:40;0.53;;;0.40;;
16025;SDS011;8117;52.488;13.460;2023-02-28T14:21:26;1.03;;;0.30;;
16025;SDS011;8117;52.488;13.460;2023-02-28T14:27:13;0.67;;;0.53;;
16025;SDS011;8117;52.488;13.460;2023-02-28T14:32:54;0.93;;;0.70;;
16025;SDS011;8117;52.488;13.460;2023-02-28T14:35:39;2.17;;;1.13;;
16025;SDS011;8117;52.488;13.460;2023-02-28T14:38:23;2.53;;;1.03;;
16025;SDS011;8117;52.488;13.460;2023-02-28T14:40:56;3.23;;;1.53;;
16025;SDS011;8117;52.488;13.460;2023-02-28T14:43:34;2.00;;;0.90;;
16025;SDS011;8117;52.488;13.460;2023-02-28T14:46:10;0.70;;;0.47;;
16025;SDS011;8117;52.488;13.460;2023-02-28T14:48:43;4.07;;;0.90;;
16025;SDS011;8117;52.488;13.460;2023-02-28T14:51:12;1.33;;;0.83;;
16025;SDS011;8117;52.488;13.460;2023-02-28T14:54:12;1.77;;;0.87;;
16025;SDS011;8117;52.488;13.460;2023-02-28T14:56:41;1.40;;;0.93;;
16025;SDS011;8117;52.488;13.460;2023-02-28T15:04:55;2.87;;;0.60;;
16025;SDS011;8117;52.488;13.460;2023-02-28T15:07:24;2.90;;;1.13;;
16025;SDS011;8117;52.488;13.460;2023-02-28T15:12:52;0.70;;;0.67;;
16025;SDS011;8117;52.488;13.460;2023-02-28T15:15:22;0.90;;;0.77;;
16025;SDS011;8117;52.488;13.460;2023-02-28T15:17:53;0.63;;;0.53;;
16025;SDS011;8117;52.488;13.460;2023-02-28T15:20:44;0.67;;;0.60;;
16025;SDS011;8117;52.488;13.460;2023-02-28T15:23:11;1.63;;;0.80;;
16025;SDS011;8117;52.488;13.460;2023-02-28T15:25:39;0.70;;;0.50;;
16025;SDS011;8117;52.488;13.460;2023-02-28T15:28:09;1.30;;;0.90;;
16025;SDS011;8117;52.488;13.460;2023-02-28T15:30:54;1.00;;;0.60;;
16025;SDS011;8117;52.488;13.460;2023-02-28T15:33:38;3.50;;;1.53;;
16025;SDS011;8117;52.488;13.460;2023-02-28T15:36:28;0.93;;;0.83;;
16025;SDS011;8117;52.488;13.460;2023-02-28T15:38:58;1.47;;;1.07;;
16025;SDS011;8117;52.488;13.460;2023-02-28T15:41:43;1.00;;;0.53;;
16025;SDS011;8117;52.488;13.460;2023-02-28T15:44:15;0.67;;;0.50;;
16025;SDS011;8117;52.488;13.460;2023-02-28T15:46:58;0.87;;;0.63;;
16025;SDS011;8117;52.488;13.460;2023-02-28T15:49:44;2.77;;;0.97;;
16025;SDS011;8117;52.488;13.460;2023-02-28T15:52:17;2.63;;;0.63;;
16025;SDS011;8117;52.488;13.460;2023-02-28T15:54:53;0.60;;;0.57;;
16025;SDS011;8117;52.488;13.460;2023-02-28T15:57:23;1.03;;;0.63;;
16025;SDS011;8117;52.488;13.460;2023-02-28T16:00:06;1.10;;;0.50;;
16025;SDS011;8117;52.488;13.460;2023-02-28T16:02:47;1.03;;;0.67;;
16025;SDS011;8117;52.488;13.460;2023-02-28T16:05:22;1.43;;;1.10;;
16025;SDS011;8117;52.488;13.460;2023-02-28T16:07:55;1.03;;;0.93;;
16025;SDS011;8117;52.488;13.460;2023-02-28T16:10:23;0.67;;;0.67;;
16025;SDS011;8117;52.488;13.460;2023-02-28T16:12:54;0.80;;;0.70;;
16025;SDS011;8117;52.488;13.460;2023-02-28T16:15:24;1.63;;;1.27;;
16025;SDS011;8117;52.488;13.460;2023-02-28T16:17:57;0.73;;;0.60;;
16025;SDS011;8117;52.488;13.460;2023-02-28T16:20:24;2.80;;;1.17;;
16025;SDS011;8117;52.488;13.460;2023-02-28T16:22:56;1.33;;;0.77;;
16025;SDS011;8117;52.488;13.460;2023-02-28T16:25:26;1.63;;;1.00;;
16025;SDS011;8117;52.488;13.460;2023-02-28T16:27:59;3.53;;;0.57;;
16025;SDS011;8117;52.488;13.460;2023-02-28T16:30:34;1.27;;;1.17;;
16025;SDS011;8117;52.488;13.460;2023-02-28T16:33:07;0.50;;;0.50;;
16025;SDS011;8117;52.488;13.460;2023-02-28T16:35:48;0.57;;;0.57;;
16025;SDS011;8117;52.488;13.460;2023-02-28T16:44:29;1.50;;;0.93;;
16025;SDS011;8117;52.488;13.460;2023-02-28T16:47:00;1.90;;;0.80;;
16025;SDS011;8117;52.488;13.460;2023-02-28T16:50:34;0.57;;;0.57;;
16025;SDS011;8117;52.488;13.460;2023-02-28T16:52:41;2.53;;;0.90;;
16025;SDS011;8117;52.488;13.460;2023-02-28T16:55:29;1.27;;;1.17;;
16025;SDS011;8117;52.488;13.460;2023-02-28T16:58:16;1.60;;;1.30;;
16025;SDS011;8117;52.488;13.460;2023-02-28T17:00:47;2.10;;;0.83;;
16025;SDS011;8117;52.488;13.460;2023-02-28T17:03:19;0.70;;;0.70;;
16025;SDS011;8117;52.488;13.460;2023-02-28T17:05:49;8.03;;;1.07;;
16025;SDS011;8117;52.488;13.460;2023-02-28T17:08:36;0.83;;;0.70;;
16025;SDS011;8117;52.488;13.460;2023-02-28T17:11:22;0.80;;;0.77;;
16025;SDS011;8117;52.488;13.460;2023-02-28T17:14:05;0.47;;;0.47;;
16025;SDS011;8117;52.488;13.460;2023-02-28T17:16:35;0.73;;;0.53;;
16025;SDS011;8117;52.488;13.460;2023-02-28T17:36:20;4.90;;;2.03;;
16025;SDS011;8117;52.488;13.460;2023-02-28T17:38:49;1.00;;;0.90;;
16025;SDS011;8117;52.488;13.460;2023-02-28T17:41:16;1.10;;;1.00;;
16025;SDS011;8117;52.488;13.460;2023-02-28T17:43:43;1.83;;;1.40;;
16025;SDS011;8117;52.488;13.460;2023-02-28T17:46:19;1.70;;;1.37;;
16025;SDS011;8117;52.488;13.460;2023-02-28T17:48:57;1.27;;;0.70;;
16025;SDS011;8117;52.488;13.460;2023-02-28T17:51:26;1.10;;;1.00;;
16025;SDS011;8117;52.488;13.460;2023-02-28T17:53:54;0.87;;;0.70;;
16025;SDS011;8117;52.488;13.460;2023-02-28T17:56:24;0.87;;;0.80;;
16025;SDS011;8117;52.488;13.460;2023-02-28T17:58:52;1.30;;;0.87;;
16025;SDS011;8117;52.488;13.460;2023-02-28T18:01:20;0.93;;;0.90;;
16025;SDS011;8117;52.488;13.460;2023-02-28T18:03:47;1.23;;;0.63;;
16025;SDS011;8117;52.488;13.460;2023-02-28T18:06:15;1.17;;;1.00;;
16025;SDS011;8117;52.488;13.460;2023-02-28T18:08:46;2.07;;;1.00;;
16025;SDS011;8117;52.488;13.460;2023-02-28T18:11:19;0.90;;;0.73;;
16025;SDS011;8117;52.488;13.460;2023-02-28T18:13:49;1.27;;;1.23;;
16025;SDS011;8117;52.488;13.460;2023-02-28T18:16:19;1.57;;;1.07;;
16025;SDS011;8117;52.488;13.460;2023-02-28T18:18:47;1.20;;;0.80;;
16025;SDS011;8117;52.488;13.460;2023-02-28T18:21:14;2.03;;;1.27;;
16025;SDS011;8117;52.488;13.460;2023-02-28T18:23:42;1.40;;;1.40;;
16025;SDS011;8117;52.488;13.460;2023-02-28T18:26:13;2.57;;;0.97;;
16025;SDS011;8117;52.488;13.460;2023-02-28T18:28:40;1.73;;;1.10;;
16025;SDS011;8117;52.488;13.460;2023-02-28T18:31:09;1.53;;;1.33;;
16025;SDS011;8117;52.488;13.460;2023-02-28T18:33:37;3.57;;;1.47;;
16025;SDS011;8117;52.488;13.460;2023-02-28T18:36:05;2.17;;;1.07;;
16025;SDS011;8117;52.488;13.460;2023-02-28T18:38:34;1.90;;;1.50;;
16025;SDS011;8117;52.488;13.460;2023-02-28T18:41:03;1.20;;;1.10;;
16025;SDS011;8117;52.488;13.460;2023-02-28T18:43:32;9.27;;;2.63;;
16025;SDS011;8117;52.488;13.460;2023-02-28T18:52:10;0.83;;;0.83;;
16025;SDS011;8117;52.488;13.460;2023-02-28T18:55:22;1.77;;;1.17;;
16025;SDS011;8117;52.488;13.460;2023-02-28T18:58:30;1.60;;;1.23;;
16025;SDS011;8117;52.488;13.460;2023-02-28T19:45:34;4.40;;;1.87;;
16025;SDS011;8117;52.488;13.460;2023-02-28T20:32:16;7.83;;;2.20;;
16025;SDS011;8117;52.488;13.460;2023-02-28T20:34:46;3.10;;;2.00;;
16025;SDS011;8117;52.488;13.460;2023-02-28T20:37:21;3.17;;;2.87;;
16025;SDS011;8117;52.488;13.460;2023-02-28T20:39:48;4.50;;;2.07;;
16025;SDS011;8117;52.488;13.460;2023-02-28T20:42:22;6.10;;;3.30;;
16025;SDS011;8117;52.488;13.460;2023-02-28T20:44:51;3.67;;;3.37;;
16025;SDS011;8117;52.488;13.460;2023-02-28T20:47:27;1.73;;;1.63;;
16025;SDS011;8117;52.488;13.460;2023-02-28T20:50:06;5.50;;;2.70;;
16025;SDS011;8117;52.488;13.460;2023-02-28T20:52:55;3.90;;;2.23;;
16025;SDS011;8117;52.488;13.460;2023-02-28T20:55:37;4.03;;;2.53;;
16025;SDS011;8117;52.488;13.460;2023-02-28T20:58:07;6.90;;;3.97;;
16025;SDS011;8117;52.488;13.460;2023-02-28T21:00:38;7.20;;;2.20;;
16025;SDS011;8117;52.488;13.460;2023-02-28T21:06:43;5.63;;;3.00;;
16025;SDS011;8117;52.488;13.460;2023-02-28T21:09:26;4.20;;;3.30;;
16025;SDS011;8117;52.488;13.460;2023-02-28T21:12:07;3.77;;;3.07;;
16025;SDS011;8117;52.488;13.460;2023-02-28T21:14:52;4.83;;;2.00;;
16025;SDS011;8117;52.488;13.460;2023-02-28T21:17:21;3.90;;;3.30;;
16025;SDS011;8117;52.488;13.460;2023-02-28T21:20:19;3.20;;;2.17;;
16025;SDS011;8117;52.488;13.460;2023-02-28T21:22:52;3.37;;;2.27;;
16025;SDS011;8117;52.488;13.460;2023-02-28T21:25:28;3.20;;;2.40;;
16025;SDS011;8117;52.488;13.460;2023-02-28T21:28:03;1.93;;;1.60;;
16025;SDS011;8117;52.488;13.460;2023-02-28T21:30:32;6.27;;;2.73;;
16025;SDS011;8117;52.488;13.460;2023-02-28T21:33:01;7.60;;;1.93;;
16025;SDS011;8117;52.488;13.460;2023-02-28T21:35:31;3.47;;;1.80;;
16025;SDS011;8117;52.488;13.460;2023-02-28T21:38:21;1.70;;;1.20;;
16025;SDS011;8117;52.488;13.460;2023-02-28T21:40:51;2.67;;;2.10;;
16025;SDS011;8117;52.488;13.460;2023-02-28T21:43:20;3.90;;;2.47;;
16025;SDS011;8117;52.488;13.460;2023-02-28T21:46:01;1.60;;;1.50;;
16025;SDS011;8117;52.488;13.460;2023-02-28T21:48:36;2.97;;;2.40;;
16025;SDS011;8117;52.488;13.460;2023-02-28T21:51:19;2.87;;;1.97;;
16025;SDS011;8117;52.488;13.460;2023-02-28T21:53:50;4.30;;;2.53;;
16025;SDS011;8117;52.488;13.460;2023-02-28T21:56:18;2.10;;;1.53;;
16025;SDS011;8117;52.488;13.460;2023-02-28T21:58:48;3.77;;;2.13;;
16025;SDS011;8117;52.488;13.460;2023-02-28T22:01:24;4.73;;;3.47;;
16025;SDS011;8117;52.488;13.460;2023-02-28T22:03:58;5.30;;;1.67;;
16025;SDS011;8117;52.488;13.460;2023-02-28T22:06:54;4.37;;;2.67;;
16025;SDS011;8117;52.488;13.460;2023-02-28T22:09:23;5.93;;;1.63;;
16025;SDS011;8117;52.488;13.460;2023-02-28T22:11:53;2.17;;;1.63;;
16025;SDS011;8117;52.488;13.460;2023-02-28T22:14:32;3.43;;;2.83;;
16025;SDS011;8117;52.488;13.460;2023-02-28T22:17:04;4.87;;;3.20;;
16025;SDS011;8117;52.488;13.460;2023-02-28T22:19:41;4.83;;;2.17;;
16025;SDS011;8117;52.488;13.460;2023-02-28T22:22:14;4.00;;;3.07;;
16025;SDS011;8117;52.488;13.460;2023-02-28T22:24:44;3.97;;;2.83;;
16025;SDS011;8117;52.488;13.460;2023-02-28T22:27:14;7.20;;;3.60;;
16025;SDS011;8117;52.488;13.460;2023-02-28T22:30:01;4.30;;;3.10;;
16025;SDS011;8117;52.488;13.460;2023-02-28T22:32:37;7.20;;;2.23;;
16025;SDS011;8117;52.488;13.460;2023-02-28T22:35:04;2.43;;;1.97;;
16025;SDS011;8117;52.488;13.460;2023-02-28T22:37:32;3.37;;;2.70;;
16025;SDS011;8117;52.488;13.460;2023-02-28T22:40:07;2.57;;;2.37;;
16025;SDS011;8117;52.488;13.460;2023-02-28T22:42:35;4.03;;;2.70;;
16025;SDS011;8117;52.488;13.460;2023-02-28T22:45:04;3.20;;;2.40;;
16025;SDS011;8117;52.488;13.460;2023-02-28T22:47:32;4.17;;;3.00;;
16025;SDS011;8117;52.488;13.460;2023-02-28T22:50:13;5.63;;;2.53;;
16025;SDS011;8117;52.488;13.460;2023-02-28T22:52:58;3.07;;;1.87;;
16025;SDS011;8117;52.488;13.460;2023-02-28T22:55:43;4.40;;;2.00;;
16025;SDS011;8117;52.488;13.460;2023-02-28T22:58:17;6.50;;;3.20;;
16025;SDS011;8117;52.488;13.460;2023-02-28T23:01:05;8.43;;;2.40;;
16025;SDS011;8117;52.488;13.460;2023-02-28T23:03:33;4.27;;;3.07;;
16025;SDS011;8117;52.488;13.460;2023-02-28T23:06:10;6.63;;;3.87;;
16025;SDS011;8117;52.488;13.460;2023-02-28T23:08:38;8.73;;;3.07;;
16025;SDS011;8117;52.488;13.460;2023-02-28T23:11:09;3.23;;;2.93;;
16025;SDS011;8117;52.488;13.460;2023-02-28T23:14:02;2.97;;;2.77;;
16025;SDS011;8117;52.488;13.460;2023-02-28T23:16:30;6.00;;;3.03;;
16025;SDS011;8117;52.488;13.460;2023-02-28T23:19:00;4.43;;;2.83;;
16025;SDS011;8117;52.488;13.460;2023-02-28T23:21:33;3.23;;;3.00;;
16025;SDS011;8117;52.488;13.460;2023-02-28T23:24:01;7.07;;;2.20;;
16025;SDS011;8117;52.488;13.460;2023-02-28T23:26:39;4.70;;;2.70;;
16025;SDS011;8117;52.488;13.460;2023-02-28T23:29:11;2.90;;;2.10;;
16025;SDS011;8117;52.488;13.460;2023-02-28T23:31:38;2.27;;;1.93;;
16025;SDS011;8117;52.488;13.460;2023-02-28T23:34:08;2.80;;;1.87;;
16025;SDS011;8117;52.488;13.460;2023-02-28T23:36:41;2.33;;;1.87;;
16025;SDS011;8117;52.488;13.460;2023-02-28T23:39:15;5.17;;;2.23;;
16025;SDS011;8117;52.488;13.460;2023-02-28T23:41:52;2.27;;;1.90;;
16025;SDS011;8117;52.488;13.460;2023-02-28T23:44:22;5.13;;;2.90;;
16025;SDS011;8117;52.488;13.460;2023-02-28T23:46:50;4.30;;;3.20;;
16025;SDS011;8117;52.488;13.460;2023-02-28T23:49:20;9.10;;;3.10;;
16025;SDS011;8117;52.488;13.460;2023-02-28T23:51:53;5.93;;;3.20;;
16025;SDS011;8117;52.488;13.460;2023-02-28T23:54:33;4.63;;;3.63;;
16025;SDS011;8117;52.488;13.460;2023-02-28T23:57:02;4.77;;;2.77;;
16025;SDS011;8117;52.488;13.460;2023-02-28T23:59:36;4.23;;;2.13;;
